createdAt,value
2023-03-06T00:01:18.186Z,101003.78
2023-03-06T00:04:03.685Z,101010.69
2023-03-06T00:06:49.182Z,100995.94
2023-03-06T00:09:34.672Z,100995.06
2023-03-06T00:12:20.061Z,100986.28
2023-03-06T00:15:06.138Z,100991.31
2023-03-06T00:17:52.622Z,100982.63
2023-03-06T00:20:40.860Z,100982.56
2023-03-06T00:23:27.755Z,100981.59
2023-03-06T00:26:13.248Z,100976.34
2023-03-06T00:29:00.542Z,100983.19
2023-03-06T00:31:47.990Z,100973.69
2023-03-06T00:34:33.505Z,100968.50
2023-03-06T00:37:19.900Z,100967.59
2023-03-06T00:40:07.648Z,100965.88
2023-03-06T00:42:52.891Z,100958.91
2023-03-06T00:45:38.846Z,100956.31
2023-03-06T00:48:27.221Z,100954.63
2023-03-06T00:51:14.016Z,100949.50
2023-03-06T00:53:59.289Z,100946.91
2023-03-06T00:56:44.657Z,100947.84
2023-03-06T00:59:30.028Z,100942.75
2023-03-06T01:02:15.359Z,100940.16
2023-03-06T01:05:00.577Z,100943.63
2023-03-06T01:07:45.904Z,100936.81
2023-03-06T01:10:31.290Z,100940.22
2023-03-06T01:13:17.080Z,100938.47
2023-03-06T01:16:11.111Z,100923.88
2023-03-06T01:18:56.829Z,100926.50
2023-03-06T01:21:42.407Z,100928.13
2023-03-06T01:24:28.674Z,100922.94
2023-03-06T01:27:15.591Z,100915.22
2023-03-06T01:30:02.563Z,100915.16
2023-03-06T01:32:48.395Z,100907.44
2023-03-06T01:35:33.809Z,100903.19
2023-03-06T01:38:19.218Z,100901.34
2023-03-06T01:41:05.495Z,100902.00
2023-03-06T01:43:50.886Z,100892.34
2023-03-06T01:46:43.733Z,100893.97
2023-03-06T01:49:36.833Z,100890.44
2023-03-06T01:52:25.916Z,100895.66
2023-03-06T01:55:21.755Z,100883.59
2023-03-06T01:58:11.639Z,100884.50
2023-03-06T02:00:57.217Z,100876.78
2023-03-06T02:03:43.096Z,100875.09
2023-03-06T02:06:29.207Z,100869.09
2023-03-06T02:09:15.144Z,100871.78
2023-03-06T02:12:02.431Z,100855.44
2023-03-06T02:14:48.643Z,100855.44
2023-03-06T02:17:35.700Z,100855.50
2023-03-06T02:20:27.692Z,100861.56
2023-03-06T02:23:17.432Z,100857.31
2023-03-06T02:26:04.254Z,100853.03
2023-03-06T02:28:49.841Z,100849.66
2023-03-06T02:31:35.800Z,100851.38
2023-03-06T02:34:21.310Z,100843.66
2023-03-06T02:37:10.974Z,100832.44
2023-03-06T02:40:08.237Z,100831.56
2023-03-06T02:42:58.573Z,100831.56
2023-03-06T02:45:48.490Z,100825.41
2023-03-06T02:48:34.409Z,100827.19
2023-03-06T02:51:19.928Z,100825.41
2023-03-06T02:54:05.218Z,100820.25
2023-03-06T02:56:50.592Z,100824.56
2023-03-06T02:59:36.043Z,100828.88
2023-03-06T03:02:23.563Z,100820.19
2023-03-06T03:05:09.260Z,100822.72
2023-03-06T03:07:59.956Z,100818.47
2023-03-06T03:10:47.233Z,100808.94
2023-03-06T03:13:33.074Z,100810.72
2023-03-06T03:16:19.806Z,100805.53
2023-03-06T03:19:04.980Z,100796.03
2023-03-06T03:21:51.950Z,100798.59
2023-03-06T03:24:42.539Z,100789.97
2023-03-06T03:27:28.654Z,100787.34
2023-03-06T03:30:15.156Z,100778.75
2023-03-06T03:33:01.029Z,100783.06
2023-03-06T03:35:46.491Z,100778.72
2023-03-06T03:38:33.061Z,100777.00
2023-03-06T03:41:18.613Z,100781.38
2023-03-06T03:44:04.936Z,100772.75
2023-03-06T03:46:51.487Z,100771.03
2023-03-06T03:49:40.337Z,100770.13
2023-03-06T03:52:26.003Z,100765.78
2023-03-06T03:55:11.542Z,100756.28
2023-03-06T03:57:59.264Z,100752.81
2023-03-06T04:00:45.797Z,100758.88
2023-03-06T04:03:33.754Z,100749.34
2023-03-06T04:06:20.215Z,100754.53
2023-03-06T04:09:06.404Z,100749.31
2023-03-06T04:11:54.464Z,100743.19
2023-03-06T04:14:39.786Z,100744.88
2023-03-06T04:17:25.830Z,100738.75
2023-03-06T04:20:13.079Z,100739.56
2023-03-06T04:22:59.301Z,100736.06
2023-03-06T04:25:45.130Z,100734.31
2023-03-06T04:28:32.118Z,100729.13
2023-03-06T04:31:18.568Z,100724.72
2023-03-06T04:34:03.916Z,100722.81
2023-03-06T04:36:49.911Z,100718.34
2023-03-06T04:39:36.236Z,100716.47
2023-03-06T04:42:21.631Z,100710.28
2023-03-06T04:45:07.754Z,100704.06
2023-03-06T04:47:53.957Z,100707.41
2023-03-06T04:50:39.373Z,100698.69
2023-03-06T04:53:24.608Z,100695.19
2023-03-06T04:56:10.060Z,100699.38
2023-03-06T04:58:55.734Z,100690.75
2023-03-06T05:01:41.010Z,100694.22
2023-03-06T05:04:26.455Z,100693.38
2023-03-06T05:07:11.782Z,100703.63
2023-03-06T05:09:57.101Z,100695.00
2023-03-06T05:12:43.309Z,100699.31
2023-03-06T05:15:29.005Z,100700.25
2023-03-06T05:18:14.696Z,100701.16
2023-03-06T05:21:00.649Z,100694.34
2023-03-06T05:23:45.970Z,100691.81
2023-03-06T05:26:31.244Z,100694.44
2023-03-06T05:29:16.505Z,100688.47
2023-03-06T05:32:01.999Z,100686.78
2023-03-06T05:34:48.840Z,100676.41
2023-03-06T05:37:34.384Z,100685.78
2023-03-06T05:40:20.406Z,100682.19
2023-03-06T05:43:06.850Z,100677.00
2023-03-06T05:46:00.628Z,100673.44
2023-03-06T05:48:46.942Z,100675.91
2023-03-06T05:51:32.941Z,100679.28
2023-03-06T05:54:18.299Z,100678.31
2023-03-06T05:57:05.092Z,100677.44
2023-03-06T05:59:51.436Z,100675.72
2023-03-06T06:02:36.749Z,100674.84
2023-03-06T06:05:22.276Z,100681.78
2023-03-06T06:08:07.531Z,100678.38
2023-03-06T06:10:53.601Z,100669.72
2023-03-06T06:13:39.975Z,100661.16
2023-03-06T06:16:25.606Z,100652.66
2023-03-06T06:19:15.606Z,100655.25
2023-03-06T06:22:02.764Z,100656.16
2023-03-06T06:24:48.228Z,100652.84
2023-03-06T06:27:33.575Z,100648.66
2023-03-06T06:30:19.144Z,100636.66
2023-03-06T06:33:04.811Z,100628.06
2023-03-06T06:35:50.886Z,100622.81
2023-03-06T06:38:36.514Z,100616.69
2023-03-06T06:44:27.469Z,100614.78
2023-03-06T06:47:28.137Z,100607.91
2023-03-06T06:50:14.197Z,100613.81
2023-03-06T06:52:59.530Z,100612.91
2023-03-06T06:55:44.857Z,100607.78
2023-03-06T06:58:30.303Z,100600.94
2023-03-06T07:01:15.647Z,100599.16
2023-03-06T07:04:00.852Z,100600.03
2023-03-06T07:06:46.924Z,100598.28
2023-03-06T07:09:32.281Z,100599.19
2023-03-06T07:12:17.656Z,100598.50
2023-03-06T07:15:04.357Z,100594.34
2023-03-06T07:17:50.355Z,100585.75
2023-03-06T07:20:36.487Z,100593.53
2023-03-06T07:23:22.589Z,100586.66
2023-03-06T07:26:08.236Z,100586.63
2023-03-06T07:28:54.588Z,100583.16
2023-03-06T07:31:40.179Z,100577.97
2023-03-06T07:34:25.638Z,100580.56
2023-03-06T07:37:11.608Z,100573.69
2023-03-06T07:39:56.795Z,100575.44
2023-03-06T07:42:42.324Z,100570.34
2023-03-06T07:45:31.031Z,100572.06
2023-03-06T07:48:16.527Z,100564.28
2023-03-06T07:51:04.679Z,100560.91
2023-03-06T07:53:50.657Z,100570.44
2023-03-06T07:56:36.873Z,100567.91
2023-03-06T07:59:22.195Z,100561.97
2023-03-06T08:02:07.558Z,100560.31
2023-03-06T08:04:56.984Z,100562.94
2023-03-06T08:07:45.886Z,100548.38
2023-03-06T08:10:31.530Z,100545.75
2023-03-06T08:13:17.185Z,100552.66
2023-03-06T08:16:03.631Z,100557.91
2023-03-06T08:18:48.908Z,100546.72
2023-03-06T08:21:34.600Z,100545.09
2023-03-06T08:24:20.266Z,100540.88
2023-03-06T08:27:05.946Z,100545.25
2023-03-06T08:29:51.625Z,100538.47
2023-03-06T08:32:37.689Z,100538.50
2023-03-06T08:35:23.493Z,100539.53
2023-03-06T08:38:08.894Z,100535.25
2023-03-06T08:40:54.205Z,100533.66
2023-03-06T08:43:40.422Z,100527.75
2023-03-06T08:46:28.146Z,100536.41
2023-03-06T08:49:13.967Z,100531.34
2023-03-06T08:51:59.671Z,100528.91
2023-03-06T08:54:44.927Z,100529.84
2023-03-06T08:57:30.823Z,100527.34
2023-03-06T09:00:16.859Z,100520.53
2023-03-06T09:03:02.365Z,100520.53
2023-03-06T09:05:47.820Z,100533.44
2023-03-06T09:08:33.129Z,100521.53
2023-03-06T09:11:19.650Z,100523.41
2023-03-06T09:14:06.250Z,100512.28
2023-03-06T09:16:51.590Z,100516.75
2023-03-06T09:19:37.800Z,100518.63
2023-03-06T09:22:23.201Z,100508.31
2023-03-06T09:25:11.121Z,100504.09
2023-03-06T09:28:10.526Z,100511.19
2023-03-06T09:30:56.980Z,100509.63
2023-03-06T09:33:43.115Z,100506.28
2023-03-06T09:36:28.338Z,100498.56
2023-03-06T09:39:13.687Z,100490.78
2023-03-06T09:41:59.191Z,100491.78
2023-03-06T09:44:50.583Z,100489.31
2023-03-06T09:47:49.994Z,100490.31
2023-03-06T09:51:01.418Z,100488.50
2023-03-06T09:54:02.871Z,100484.03
2023-03-06T09:56:50.675Z,100481.25
2023-03-06T09:59:36.379Z,100482.03
2023-03-06T10:02:38.693Z,100485.53
2023-03-06T10:05:26.326Z,100478.63
2023-03-06T10:08:53.503Z,100479.66
2023-03-06T10:11:38.774Z,100479.78
2023-03-06T10:15:05.861Z,100475.56
2023-03-06T10:17:51.593Z,100469.56
2023-03-06T10:21:07.421Z,100464.38
2023-03-06T10:24:19.260Z,100459.13
2023-03-06T10:27:24.033Z,100460.88
2023-03-06T10:30:28.291Z,100453.97
2023-03-06T10:33:32.448Z,100458.31
2023-03-06T10:36:20.297Z,100467.84
2023-03-06T10:39:14.259Z,100460.09
2023-03-06T10:41:59.936Z,100459.25
2023-03-06T10:44:45.305Z,100459.25
2023-03-06T10:47:35.190Z,100451.47
2023-03-06T10:50:30.676Z,100455.88
2023-03-06T10:53:29.136Z,100456.66
2023-03-06T10:56:29.902Z,100461.03
2023-03-06T10:59:18.125Z,100461.03
2023-03-06T11:02:27.442Z,100460.19
2023-03-06T11:05:20.853Z,100463.69
2023-03-06T11:08:22.065Z,100465.53
2023-03-06T11:11:11.144Z,100462.13
2023-03-06T11:13:59.050Z,100454.38
2023-03-06T11:16:53.718Z,100463.03
2023-03-06T11:19:39.165Z,100456.16
2023-03-06T11:22:24.624Z,100457.88
2023-03-06T11:25:15.250Z,100458.69
2023-03-06T11:28:06.985Z,100459.50
2023-03-06T11:31:01.021Z,100440.53
2023-03-06T11:33:55.960Z,100438.06
2023-03-06T11:36:54.765Z,100432.91
2023-03-06T11:39:57.057Z,100435.53
2023-03-06T11:42:48.704Z,100434.72
2023-03-06T11:45:45.139Z,100427.88
2023-03-06T11:48:56.510Z,100421.97
2023-03-06T11:51:48.155Z,100426.44
2023-03-06T11:54:34.014Z,100420.44
2023-03-06T11:57:24.869Z,100412.66
2023-03-06T12:00:26.133Z,100410.09
2023-03-06T12:03:14.834Z,100402.28
2023-03-06T12:06:00.129Z,100391.06
2023-03-06T12:08:51.012Z,100399.78
2023-03-06T12:12:18.247Z,100392.00
2023-03-06T12:15:22.681Z,100380.72
2023-03-06T12:18:31.263Z,100378.09
2023-03-06T12:21:32.614Z,100376.41
2023-03-06T12:24:49.563Z,100366.00
2023-03-06T12:28:08.388Z,100362.53
2023-03-06T12:31:32.105Z,100360.81
2023-03-06T12:34:41.221Z,100353.88
2023-03-06T12:37:48.197Z,100350.38
2023-03-06T12:40:56.626Z,100356.41
2023-03-06T12:44:00.680Z,100355.53
2023-03-06T12:46:59.343Z,100348.63
2023-03-06T12:49:51.848Z,100346.84
2023-03-06T12:52:37.501Z,100349.41
2023-03-06T12:55:25.973Z,100349.41
2023-03-06T12:58:32.621Z,100350.31
2023-03-06T13:01:39.812Z,100345.06
2023-03-06T13:04:47.305Z,100343.97
2023-03-06T13:07:48.328Z,100341.59
2023-03-06T13:10:38.632Z,100351.75
2023-03-06T13:13:44.397Z,100348.16
2023-03-06T13:16:34.628Z,100354.00
2023-03-06T13:19:27.012Z,100341.03
2023-03-06T13:22:43.441Z,100346.09
2023-03-06T13:25:29.029Z,100344.16
2023-03-06T13:28:24.312Z,100339.78
2023-03-06T13:31:21.356Z,100332.75
2023-03-06T13:34:35.986Z,100344.00
2023-03-06T13:37:23.467Z,100338.81
2023-03-06T13:40:09.950Z,100332.84
2023-03-06T13:43:07.560Z,100331.97
2023-03-06T13:45:52.897Z,100322.47
2023-03-06T13:48:44.867Z,100319.84
2023-03-06T13:51:47.660Z,100312.91
2023-03-06T13:54:43.851Z,100310.41
2023-03-06T13:57:47.788Z,100313.94
2023-03-06T14:01:17.983Z,100310.53
2023-03-06T14:04:27.352Z,100314.03
2023-03-06T14:07:33.646Z,100306.31
2023-03-06T14:10:23.510Z,100306.38
2023-03-06T14:13:32.332Z,100302.84
2023-03-06T14:16:40.498Z,100308.06
2023-03-06T14:19:38.660Z,100302.72
2023-03-06T14:22:24.611Z,100292.16
2023-03-06T14:25:22.862Z,100287.06
2023-03-06T14:28:22.857Z,100284.56
2023-03-06T14:31:16.227Z,100283.91
2023-03-06T14:34:24.197Z,100281.44
2023-03-06T14:37:21.336Z,100268.56
2023-03-06T14:40:11.436Z,100269.47
2023-03-06T14:43:19.632Z,100267.84
2023-03-06T14:46:08.801Z,100264.31
2023-03-06T14:48:54.399Z,100262.66
2023-03-06T14:51:45.878Z,100264.41
2023-03-06T14:54:34.420Z,100258.28
2023-03-06T14:57:23.175Z,100258.28
2023-03-06T15:00:17.614Z,100255.69
2023-03-06T15:03:09.435Z,100250.56
2023-03-06T15:05:55.970Z,100245.31
2023-03-06T15:08:46.030Z,100248.72
2023-03-06T15:11:50.974Z,100245.31
2023-03-06T15:14:43.051Z,100247.94
2023-03-06T15:17:39.122Z,100250.53
2023-03-06T15:20:53.530Z,100248.78
2023-03-06T15:23:41.783Z,100248.81
2023-03-06T15:26:37.134Z,100241.91
2023-03-06T15:29:24.362Z,100237.53
2023-03-06T15:32:42.502Z,100232.25
2023-03-06T15:35:32.002Z,100241.66
2023-03-06T15:38:25.098Z,100226.06
2023-03-06T15:41:35.663Z,100226.94
2023-03-06T15:44:21.013Z,100229.53
2023-03-06T15:47:09.418Z,100220.88
2023-03-06T15:49:55.408Z,100221.69
2023-03-06T15:52:40.915Z,100219.19
2023-03-06T15:55:26.616Z,100213.09
2023-03-06T15:58:17.545Z,100207.03
2023-03-06T16:01:03.913Z,100202.72
2023-03-06T16:03:49.617Z,100205.34
2023-03-06T16:06:35.062Z,100201.00
2023-03-06T16:09:20.347Z,100197.50
2023-03-06T16:12:06.554Z,100197.47
2023-03-06T16:14:51.977Z,100187.03
2023-03-06T16:17:37.340Z,100179.25
2023-03-06T16:20:25.666Z,100178.38
2023-03-06T16:23:11.211Z,100177.56
2023-03-06T16:25:56.693Z,100177.56
2023-03-06T16:28:42.569Z,100170.63
2023-03-06T16:31:28.277Z,100178.38
2023-03-06T16:34:14.309Z,100171.44
2023-03-06T16:36:59.950Z,100179.19
2023-03-06T16:39:45.291Z,100174.03
2023-03-06T16:42:30.804Z,100174.03
2023-03-06T16:45:17.827Z,100174.03
2023-03-06T16:48:03.796Z,100168.03
2023-03-06T16:50:50.449Z,100175.81
2023-03-06T16:53:35.638Z,100172.41
2023-03-06T16:56:20.950Z,100180.09
2023-03-06T16:59:06.348Z,100184.38
2023-03-06T17:01:51.979Z,100183.47
2023-03-06T17:04:37.955Z,100175.66
2023-03-06T17:07:23.337Z,100179.91
2023-03-06T17:10:12.188Z,100186.78
2023-03-06T17:12:57.892Z,100182.50
2023-03-06T17:15:56.538Z,100185.06
2023-03-06T17:18:43.274Z,100184.16
2023-03-06T17:21:30.347Z,100187.56
2023-03-06T17:24:15.645Z,100189.25
2023-03-06T17:27:00.947Z,100185.72
2023-03-06T17:29:46.585Z,100193.41
2023-03-06T17:32:32.973Z,100177.59
2023-03-06T17:35:18.590Z,100173.22
2023-03-06T17:38:04.383Z,100173.94
2023-03-06T17:40:49.824Z,100170.34
2023-03-06T17:43:35.569Z,100169.56
2023-03-06T17:46:21.275Z,100176.50
2023-03-06T17:49:06.918Z,100173.88
2023-03-06T17:51:53.717Z,100173.84
2023-03-06T17:54:39.089Z,100175.53
2023-03-06T17:57:24.417Z,100180.69
2023-03-06T18:00:11.005Z,100185.75
2023-03-06T18:02:59.759Z,100189.06
2023-03-06T18:05:45.290Z,100179.53
2023-03-06T18:08:31.104Z,100184.63
2023-03-06T18:11:16.795Z,100178.59
2023-03-06T18:14:04.381Z,100181.13
2023-03-06T18:16:50.804Z,100176.84
2023-03-06T18:19:36.305Z,100176.84
2023-03-06T18:22:21.669Z,100177.69
2023-03-06T18:25:07.402Z,100173.34
2023-03-06T18:27:52.859Z,100183.66
2023-03-06T18:30:43.471Z,100179.34
2023-03-06T18:33:29.035Z,100190.53
2023-03-06T18:36:14.762Z,100188.81
2023-03-06T18:39:03.833Z,100183.63
2023-03-06T18:41:49.523Z,100184.44
2023-03-06T18:44:34.831Z,100186.19
2023-03-06T18:47:19.983Z,100185.34
2023-03-06T18:50:06.533Z,100187.81
2023-03-06T18:52:52.415Z,100186.88
2023-03-06T18:55:38.651Z,100184.31
2023-03-06T18:58:23.841Z,100190.25
2023-03-06T19:01:09.458Z,100179.78
2023-03-06T19:03:55.151Z,100182.31
2023-03-06T19:06:41.061Z,100192.53
2023-03-06T19:09:26.614Z,100177.84
2023-03-06T19:12:11.897Z,100182.97
2023-03-06T19:14:58.180Z,100175.97
2023-03-06T19:17:43.507Z,100182.78
2023-03-06T19:20:28.820Z,100186.16
2023-03-06T19:23:14.291Z,100179.22
2023-03-06T19:26:00.530Z,100181.63
2023-03-06T19:28:46.750Z,100178.13
2023-03-06T19:31:32.402Z,100177.22
2023-03-06T19:34:17.851Z,100173.59
2023-03-06T19:37:03.395Z,100170.94
2023-03-06T19:39:48.612Z,100174.31
2023-03-06T19:42:33.983Z,100168.19
2023-03-06T19:45:19.566Z,100167.31
2023-03-06T19:48:06.056Z,100167.34
2023-03-06T19:50:51.632Z,100173.25
2023-03-06T19:53:37.883Z,100166.25
2023-03-06T19:56:29.340Z,100164.59
2023-03-06T19:59:14.819Z,100149.97
2023-03-06T20:02:00.333Z,100155.97
2023-03-06T20:04:46.731Z,100156.03
2023-03-06T20:07:32.437Z,100149.09
2023-03-06T20:10:18.295Z,100147.38
2023-03-06T20:13:04.009Z,100145.66
2023-03-06T20:15:49.969Z,100142.25
2023-03-06T20:18:35.995Z,100147.44
2023-03-06T20:21:24.271Z,100140.50
2023-03-06T20:24:17.979Z,100144.81
2023-03-06T20:27:03.534Z,100143.03
2023-03-06T20:29:49.137Z,100137.91
2023-03-06T20:32:34.850Z,100138.78
2023-03-06T20:35:20.661Z,100131.84
2023-03-06T20:38:06.117Z,100131.88
2023-03-06T20:40:54.780Z,100124.16
2023-03-06T20:43:40.486Z,100130.13
2023-03-06T20:46:26.378Z,100127.56
2023-03-06T20:49:13.367Z,100125.81
2023-03-06T20:51:58.990Z,100122.38
2023-03-06T20:54:45.461Z,100113.78
2023-03-06T20:57:30.883Z,100109.53
2023-03-06T21:00:17.692Z,100108.72
2023-03-06T21:03:03.446Z,100116.44
2023-03-06T21:05:49.108Z,100113.00
2023-03-06T21:08:34.460Z,100120.75
2023-03-06T21:11:19.887Z,100123.22
2023-03-06T21:14:05.568Z,100123.22
2023-03-06T21:16:51.190Z,100126.69
2023-03-06T21:19:37.163Z,100130.16
2023-03-06T21:22:23.131Z,100129.28
2023-03-06T21:25:08.559Z,100138.81
2023-03-06T21:27:54.303Z,100131.91
2023-03-06T21:30:39.994Z,100132.78
2023-03-06T21:33:25.646Z,100138.69
2023-03-06T21:36:11.652Z,100132.69
2023-03-06T21:38:57.293Z,100133.53
2023-03-06T21:41:42.815Z,100134.38
2023-03-06T21:44:28.028Z,100135.19
2023-03-06T21:47:13.472Z,100132.56
2023-03-06T21:49:58.726Z,100135.13
2023-03-06T21:52:44.176Z,100136.78
2023-03-06T21:55:29.632Z,100141.84
2023-03-06T21:58:15.001Z,100140.94
2023-03-06T22:01:00.683Z,100141.75
2023-03-06T22:03:46.561Z,100135.66
2023-03-06T22:06:32.095Z,100130.53
2023-03-06T22:09:19.146Z,100128.81
2023-03-06T22:12:04.734Z,100126.19
2023-03-06T22:14:50.178Z,100120.06
2023-03-06T22:17:35.718Z,100124.41
2023-03-06T22:20:21.258Z,100125.19
2023-03-06T22:23:06.912Z,100126.91
2023-03-06T22:25:52.383Z,100126.00
2023-03-06T22:28:38.890Z,100130.25
2023-03-06T22:31:26.812Z,100131.94
2023-03-06T22:34:12.367Z,100136.22
2023-03-06T22:36:57.904Z,100131.94
2023-03-06T22:39:43.254Z,100132.78
2023-03-06T22:42:28.816Z,100124.13
2023-03-06T22:45:14.560Z,100125.81
2023-03-06T22:48:10.577Z,100128.34
2023-03-06T22:50:56.566Z,100123.16
2023-03-06T22:53:42.729Z,100123.16
2023-03-06T22:56:28.613Z,100123.97
2023-03-06T22:59:14.351Z,100117.03
2023-03-06T23:01:59.840Z,100124.75
2023-03-06T23:04:53.316Z,100129.81
2023-03-06T23:07:39.023Z,100122.97
2023-03-06T23:10:24.742Z,100122.13
2023-03-06T23:13:29.172Z,100122.94
2023-03-06T23:16:33.822Z,100123.81
2023-03-06T23:19:38.138Z,100118.63
2023-03-06T23:22:42.701Z,100121.22
2023-03-06T23:25:46.979Z,100122.03
2023-03-06T23:28:32.974Z,100125.44
2023-03-06T23:31:22.989Z,100123.66
2023-03-06T23:34:11.610Z,100115.09
2023-03-06T23:36:57.237Z,100121.09
2023-03-06T23:39:43.004Z,100115.88
2023-03-06T23:42:28.299Z,100124.50
2023-03-06T23:45:13.703Z,100115.91
2023-03-06T23:47:59.248Z,100105.56
2023-03-06T23:50:45.092Z,100109.88
2023-03-06T23:53:30.845Z,100103.81
2023-03-06T23:56:16.717Z,100099.53
2023-03-06T23:59:02.201Z,100099.44
